createdAt,value
2022-09-17T00:00:39.304Z,15.50
2022-09-17T00:01:39.351Z,12.90
2022-09-17T00:02:40.100Z,14.30
2022-09-17T00:03:39.324Z,13.50
2022-09-17T00:04:39.392Z,10.30
2022-09-17T00:05:39.316Z,13.90
2022-09-17T00:06:40.264Z,11.90
2022-09-17T00:07:40.338Z,10.90
2022-09-17T00:08:40.775Z,13.20
2022-09-17T00:09:39.396Z,12.30
2022-09-17T00:10:39.350Z,12.60
2022-09-17T00:11:39.280Z,12.30
2022-09-17T00:12:40.052Z,14.30
2022-09-17T00:14:13.247Z,14.10
2022-09-17T00:14:39.139Z,15.80
2022-09-17T00:15:40.794Z,12.10
2022-09-17T00:16:40.092Z,15.50
2022-09-17T00:17:39.281Z,19.00
2022-09-17T00:18:39.346Z,12.20
2022-09-17T00:19:39.298Z,18.10
2022-09-17T00:20:40.116Z,18.10
2022-09-17T00:21:39.827Z,10.80
2022-09-17T00:22:39.149Z,15.00
2022-09-17T00:23:39.961Z,21.70
2022-09-17T00:24:39.270Z,17.20
2022-09-17T00:25:39.307Z,14.50
2022-09-17T00:26:40.122Z,16.60
2022-09-17T00:27:39.184Z,16.10
2022-09-17T00:28:39.168Z,20.00
2022-09-17T00:29:39.166Z,16.20
2022-09-17T00:30:40.071Z,17.10
2022-09-17T00:31:39.242Z,15.80
2022-09-17T00:32:39.125Z,16.20
2022-09-17T00:33:39.028Z,15.20
2022-09-17T00:34:39.580Z,15.20
2022-09-17T00:35:39.784Z,19.40
2022-09-17T00:36:39.828Z,16.80
2022-09-17T00:37:39.048Z,18.00
2022-09-17T00:38:39.065Z,19.60
2022-09-17T00:39:39.080Z,19.30
2022-09-17T00:40:39.162Z,16.00
2022-09-17T00:41:40.316Z,19.80
2022-09-17T00:42:38.989Z,17.70
2022-09-17T00:43:40.316Z,22.00
2022-09-17T00:44:39.871Z,17.80
2022-09-17T00:45:40.081Z,16.20
2022-09-17T00:46:40.191Z,17.20
2022-09-17T00:47:38.999Z,20.90
2022-09-17T00:48:39.954Z,23.70
2022-09-17T00:49:39.865Z,17.90
2022-09-17T00:50:39.866Z,16.60
2022-09-17T00:51:38.977Z,25.40
2022-09-17T00:52:38.946Z,19.00
2022-09-17T00:53:39.018Z,18.80
2022-09-17T00:54:38.934Z,17.50
2022-09-17T00:55:39.005Z,20.70
2022-09-17T00:56:39.055Z,22.00
2022-09-17T00:57:38.954Z,20.80
2022-09-17T00:58:41.295Z,20.40
2022-09-17T00:59:40.574Z,18.80
2022-09-17T01:00:39.596Z,18.20
2022-09-17T01:01:39.664Z,19.10
2022-09-17T01:02:38.975Z,17.00
2022-09-17T01:03:39.918Z,17.80
2022-09-17T01:04:40.598Z,18.30
2022-09-17T01:05:39.825Z,19.20
2022-09-17T01:06:39.969Z,21.70
2022-09-17T01:07:38.911Z,17.00
2022-09-17T01:08:39.590Z,24.60
2022-09-17T01:09:40.097Z,23.70
2022-09-17T01:10:38.792Z,20.20
2022-09-17T01:11:40.079Z,16.50
2022-09-17T01:12:48.609Z,21.40
2022-09-17T01:14:23.799Z,21.60
2022-09-17T01:15:01.793Z,23.60
2022-09-17T01:16:02.083Z,19.90
2022-09-17T01:17:15.090Z,22.70
2022-09-17T01:17:47.116Z,20.80
2022-09-17T01:18:55.172Z,20.30
2022-09-17T01:19:48.612Z,19.20
2022-09-17T01:20:47.121Z,18.90
2022-09-17T01:21:47.721Z,21.80
2022-09-17T01:30:50.497Z,21.10
2022-09-17T01:31:55.235Z,11.70
2022-09-17T01:33:12.011Z,14.00
2022-09-17T01:33:58.010Z,14.30
2022-09-17T01:35:01.387Z,15.50
2022-09-17T01:36:17.398Z,13.50
2022-09-17T01:37:07.790Z,13.80
2022-09-17T01:38:17.505Z,12.10
2022-09-17T01:39:08.604Z,11.40
2022-09-17T01:40:03.698Z,11.60
2022-09-17T01:41:02.994Z,13.70
2022-09-17T01:41:52.986Z,11.50
2022-09-17T01:42:50.221Z,9.80
2022-09-17T01:43:50.985Z,12.60
2022-09-17T01:44:50.172Z,11.10
2022-09-17T02:05:21.254Z,14.20
2022-09-17T02:06:16.125Z,15.70
2022-09-17T02:07:17.054Z,17.40
2022-09-17T02:08:35.272Z,14.20
2022-09-17T02:09:25.999Z,14.60
2022-09-17T02:10:17.992Z,15.90
2022-09-17T02:11:16.600Z,14.10
2022-09-17T02:19:54.875Z,15.80
2022-09-17T02:20:54.325Z,12.90
2022-09-17T02:21:55.424Z,17.00
2022-09-17T02:22:56.383Z,13.50
2022-09-17T02:23:55.441Z,16.50
2022-09-17T02:24:56.269Z,10.40
2022-09-17T02:25:55.458Z,13.60
2022-09-17T02:26:55.523Z,12.00
2022-09-17T02:27:55.499Z,12.50
2022-09-17T02:28:55.429Z,17.50
2022-09-17T02:29:56.037Z,11.00
2022-09-17T02:30:59.320Z,14.80
2022-09-17T02:31:57.028Z,15.00
2022-09-17T02:32:57.277Z,12.60
2022-09-17T02:34:02.775Z,12.40
2022-09-17T02:34:56.471Z,13.30
2022-09-17T02:35:56.817Z,14.80
2022-09-17T02:37:06.272Z,14.10
2022-09-17T02:50:29.870Z,10.90
2022-09-17T02:51:29.953Z,12.40
2022-09-17T02:52:29.943Z,14.00
2022-09-17T02:53:30.373Z,13.60
2022-09-17T02:54:29.861Z,14.00
2022-09-17T02:55:31.219Z,11.20
2022-09-17T02:56:31.120Z,12.80
2022-09-17T02:57:31.018Z,13.60
2022-09-17T02:58:31.176Z,13.80
2022-09-17T02:59:31.072Z,15.30
2022-09-17T03:00:31.093Z,11.20
2022-09-17T03:01:31.092Z,9.90
2022-09-17T03:02:43.165Z,8.20
2022-09-17T03:03:54.077Z,7.80
2022-09-17T03:04:32.718Z,8.60
2022-09-17T03:05:31.900Z,7.30
2022-09-17T03:06:31.944Z,9.50
2022-09-17T03:07:31.068Z,9.00
2022-09-17T03:08:30.992Z,8.30
2022-09-17T03:09:31.609Z,7.00
2022-09-17T03:10:31.654Z,9.00
2022-09-17T03:11:31.951Z,7.60
2022-09-17T03:12:31.464Z,9.30
2022-09-17T03:13:31.049Z,11.10
2022-09-17T03:14:31.876Z,9.70
2022-09-17T03:16:04.074Z,7.80
2022-09-17T03:16:30.827Z,7.20
2022-09-17T03:17:30.812Z,8.40
2022-09-17T03:18:30.798Z,8.20
2022-09-17T03:19:30.779Z,6.40
2022-09-17T03:20:30.776Z,10.20
2022-09-17T03:21:30.793Z,9.30
2022-09-17T03:22:30.732Z,8.50
2022-09-17T03:23:30.789Z,8.30
2022-09-17T03:24:30.829Z,11.30
2022-09-17T03:25:30.750Z,10.30
2022-09-17T03:26:30.841Z,8.80
2022-09-17T03:27:30.802Z,8.00
2022-09-17T03:28:30.767Z,7.50
2022-09-17T03:29:30.726Z,8.30
2022-09-17T03:30:30.716Z,10.20
2022-09-17T03:31:30.711Z,8.50
2022-09-17T03:32:30.684Z,9.30
2022-09-17T03:33:30.752Z,9.40
2022-09-17T03:34:30.733Z,9.20
2022-09-17T03:35:30.726Z,7.80
2022-09-17T03:36:30.696Z,11.90
2022-09-17T03:37:33.083Z,8.80
2022-09-17T03:38:31.764Z,9.00
2022-09-17T03:39:30.634Z,10.40
2022-09-17T03:40:30.790Z,12.10
2022-09-17T03:41:30.713Z,9.10
2022-09-17T03:42:30.641Z,9.20
2022-09-17T03:43:30.603Z,10.90
2022-09-17T03:44:30.626Z,10.90
2022-09-17T03:45:30.632Z,9.40
2022-09-17T03:46:30.655Z,11.20
2022-09-17T04:02:39.922Z,7.20
2022-09-17T04:03:39.748Z,10.90
2022-09-17T04:04:39.741Z,11.70
2022-09-17T04:05:40.868Z,10.90
2022-09-17T04:06:40.844Z,13.80
2022-09-17T04:07:40.855Z,13.00
2022-09-17T04:08:40.841Z,15.30
2022-09-17T04:09:40.899Z,13.90
2022-09-17T04:10:40.877Z,11.10
2022-09-17T04:11:40.842Z,11.60
2022-09-17T04:12:40.821Z,12.10
2022-09-17T04:13:41.825Z,10.70
2022-09-17T04:14:40.854Z,9.90
2022-09-17T04:15:40.901Z,9.30
2022-09-17T04:16:41.887Z,10.60
2022-09-17T04:17:40.794Z,7.50
2022-09-17T04:18:40.841Z,8.90
2022-09-17T04:19:40.797Z,9.60
2022-09-17T04:20:40.777Z,10.00
2022-09-17T04:21:40.759Z,8.10
2022-09-17T04:22:40.708Z,11.60
2022-09-17T04:23:40.717Z,9.90
2022-09-17T04:24:40.720Z,11.40
2022-09-17T04:25:40.689Z,10.10
2022-09-17T04:26:40.728Z,10.20
2022-09-17T04:27:40.715Z,11.70
2022-09-17T04:28:40.687Z,12.90
2022-09-17T04:29:40.662Z,10.20
2022-09-17T04:30:40.754Z,9.50
2022-09-17T04:31:40.710Z,11.20
2022-09-17T04:32:40.676Z,9.60
2022-09-17T04:33:40.635Z,8.80
2022-09-17T04:34:40.720Z,12.30
2022-09-17T04:35:40.635Z,14.20
2022-09-17T04:36:40.643Z,10.90
2022-09-17T04:37:40.642Z,7.60
2022-09-17T04:38:40.624Z,13.00
2022-09-17T04:39:40.647Z,10.20
2022-09-17T04:40:40.676Z,12.20
2022-09-17T04:41:40.600Z,9.60
2022-09-17T04:42:40.579Z,10.00
2022-09-17T04:43:40.567Z,8.30
2022-09-17T04:44:40.586Z,11.00
2022-09-17T04:45:40.579Z,11.20
2022-09-17T04:46:40.663Z,16.10
2022-09-17T04:47:40.542Z,15.10
2022-09-17T04:48:40.533Z,10.40
2022-09-17T04:49:40.542Z,9.50
2022-09-17T04:50:40.636Z,12.30
2022-09-17T04:51:40.519Z,10.00
2022-09-17T04:52:40.521Z,11.80
2022-09-17T04:53:40.509Z,10.50
2022-09-17T04:54:40.489Z,12.60
2022-09-17T04:55:40.539Z,16.20
2022-09-17T04:56:40.465Z,11.30
2022-09-17T04:57:40.462Z,14.30
2022-09-17T04:58:40.455Z,15.10
2022-09-17T04:59:40.482Z,12.00
2022-09-17T05:00:40.517Z,13.70
2022-09-17T05:01:40.543Z,11.40
2022-09-17T05:02:40.437Z,11.70
2022-09-17T05:03:40.446Z,12.20
2022-09-17T05:04:40.410Z,10.50
2022-09-17T05:05:40.424Z,10.40
2022-09-17T05:06:40.533Z,18.70
2022-09-17T05:07:40.407Z,15.00
2022-09-17T05:08:40.386Z,12.20
2022-09-17T05:09:40.393Z,14.80
2022-09-17T05:10:40.373Z,13.80
2022-09-17T05:11:40.361Z,11.30
2022-09-17T05:12:40.371Z,14.00
2022-09-17T05:13:40.348Z,12.90
2022-09-17T05:14:40.329Z,13.90
2022-09-17T05:15:40.476Z,12.70
2022-09-17T05:16:40.330Z,14.60
2022-09-17T05:17:40.365Z,11.90
2022-09-17T05:18:40.303Z,11.10
2022-09-17T05:19:40.317Z,17.40
2022-09-17T05:20:40.324Z,17.40
2022-09-17T05:21:40.274Z,14.10
2022-09-17T05:22:40.371Z,13.90
2022-09-17T05:23:40.272Z,16.20
2022-09-17T05:24:40.263Z,13.60
2022-09-17T05:25:40.243Z,15.30
2022-09-17T05:26:40.220Z,11.70
2022-09-17T05:27:40.274Z,15.00
2022-09-17T05:28:40.268Z,12.70
2022-09-17T05:29:40.233Z,14.90
2022-09-17T05:30:40.214Z,13.40
2022-09-17T05:31:41.241Z,15.90
2022-09-17T05:32:40.204Z,15.80
2022-09-17T05:33:40.190Z,13.80
2022-09-17T05:34:40.151Z,15.50
2022-09-17T05:35:40.176Z,14.40
2022-09-17T05:36:40.188Z,17.10
2022-09-17T05:37:40.153Z,17.60
2022-09-17T05:38:40.214Z,19.20
2022-09-17T05:39:40.174Z,15.90
2022-09-17T05:40:40.134Z,15.50
2022-09-17T05:41:40.102Z,17.00
2022-09-17T05:42:40.104Z,10.50
2022-09-17T05:43:40.086Z,14.60
2022-09-17T05:44:40.106Z,13.80
2022-09-17T05:45:40.087Z,22.00
2022-09-17T05:46:40.138Z,21.00
2022-09-17T05:47:40.086Z,15.30
2022-09-17T05:48:40.055Z,15.90
2022-09-17T05:49:40.067Z,17.20
2022-09-17T05:50:40.049Z,15.10
2022-09-17T05:51:40.040Z,13.20
2022-09-17T05:52:40.033Z,14.40
2022-09-17T05:53:40.037Z,19.30
2022-09-17T05:54:40.109Z,14.70
2022-09-17T05:55:41.002Z,19.00
2022-09-17T05:56:39.988Z,15.60
2022-09-17T05:57:40.996Z,19.70
2022-09-17T05:58:40.001Z,16.20
2022-09-17T05:59:39.963Z,18.10
2022-09-17T06:00:39.986Z,17.70
2022-09-17T06:01:40.000Z,16.90
2022-09-17T06:02:39.979Z,20.80
2022-09-17T06:03:39.941Z,22.30
2022-09-17T06:04:39.917Z,21.30
2022-09-17T06:05:39.917Z,12.70
2022-09-17T06:06:39.901Z,16.70
2022-09-17T06:07:39.900Z,18.70
2022-09-17T06:08:39.898Z,17.30
2022-09-17T06:09:39.890Z,18.00
2022-09-17T06:10:39.985Z,16.50
2022-09-17T06:11:39.895Z,16.50
2022-09-17T06:12:39.876Z,21.30
2022-09-17T06:13:39.884Z,26.60
2022-09-17T06:14:39.874Z,17.30
2022-09-17T06:15:39.855Z,18.30
2022-09-17T06:16:39.881Z,21.90
2022-09-17T06:17:39.843Z,18.80
2022-09-17T06:18:39.843Z,21.80
2022-09-17T06:19:39.814Z,15.10
2022-09-17T06:20:39.827Z,19.00
2022-09-17T06:21:39.826Z,19.30
2022-09-17T06:22:39.792Z,19.00
2022-09-17T06:23:39.791Z,17.20
2022-09-17T06:24:39.781Z,16.20
2022-09-17T06:25:39.791Z,12.90
2022-09-17T06:26:39.854Z,20.50
2022-09-17T06:27:39.760Z,16.90
2022-09-17T06:28:41.861Z,17.50
2022-09-17T06:29:40.737Z,13.80
2022-09-17T06:30:39.775Z,14.60
2022-09-17T06:31:39.791Z,18.70
2022-09-17T06:32:39.713Z,16.00
2022-09-17T06:33:39.733Z,16.90
2022-09-17T06:34:39.713Z,18.40
2022-09-17T06:35:39.734Z,16.60
2022-09-17T06:36:39.763Z,12.80
2022-09-17T06:37:39.687Z,15.40
2022-09-17T06:38:39.674Z,19.10
2022-09-17T06:39:39.667Z,14.00
2022-09-17T06:40:39.738Z,16.30
2022-09-17T06:41:39.670Z,18.20
2022-09-17T06:42:39.726Z,13.10
2022-09-17T06:43:39.653Z,14.80
2022-09-17T06:44:39.609Z,14.20
2022-09-17T06:45:39.611Z,16.00
2022-09-17T06:46:39.638Z,15.40
2022-09-17T06:47:39.605Z,17.30
2022-09-17T06:48:39.619Z,19.00
2022-09-17T06:49:39.580Z,11.80
2022-09-17T06:50:42.804Z,16.30
2022-09-17T06:51:40.571Z,18.40
2022-09-17T06:52:39.612Z,15.40
2022-09-17T06:53:39.570Z,16.70
2022-09-17T06:54:39.553Z,16.00
2022-09-17T06:55:39.555Z,15.30
2022-09-17T06:56:39.567Z,16.80
2022-09-17T06:57:39.653Z,16.60
2022-09-17T06:58:39.600Z,19.30
2022-09-17T06:59:39.832Z,14.70
2022-09-17T07:00:39.676Z,20.00
2022-09-17T07:01:39.560Z,19.50
2022-09-17T07:02:39.534Z,16.20
2022-09-17T07:03:39.541Z,18.50
2022-09-17T07:04:39.495Z,19.50
2022-09-17T07:05:40.100Z,16.90
2022-09-17T07:06:39.516Z,14.70
2022-09-17T07:07:39.438Z,13.90
2022-09-17T07:08:39.681Z,20.00
2022-09-17T07:09:39.615Z,17.50
2022-09-17T07:10:39.430Z,20.00
2022-09-17T07:11:39.504Z,21.00
2022-09-17T07:12:39.476Z,24.40
2022-09-17T07:13:39.423Z,17.30
2022-09-17T07:14:39.553Z,17.30
2022-09-17T07:15:39.462Z,13.60
2022-09-17T07:16:40.917Z,23.50
2022-09-17T07:17:39.421Z,16.50
2022-09-17T07:18:39.379Z,15.40
2022-09-17T07:19:39.382Z,18.60
2022-09-17T07:20:39.367Z,13.70
2022-09-17T07:21:39.443Z,20.40
2022-09-17T07:22:39.341Z,15.80
2022-09-17T07:23:39.359Z,15.70
2022-09-17T07:24:39.401Z,16.40
2022-09-17T07:25:39.348Z,16.20
2022-09-17T07:26:39.312Z,15.80
2022-09-17T07:27:39.374Z,14.60
2022-09-17T07:28:39.386Z,12.20
2022-09-17T07:29:39.303Z,16.70
2022-09-17T07:30:39.382Z,16.60
2022-09-17T07:31:39.428Z,18.40
2022-09-17T07:32:40.027Z,18.20
2022-09-17T07:33:39.293Z,14.40
2022-09-17T07:34:39.360Z,17.00
2022-09-17T07:35:39.297Z,17.60
2022-09-17T07:36:39.239Z,20.00
2022-09-17T07:37:39.274Z,17.50
2022-09-17T07:38:39.254Z,20.30
2022-09-17T07:39:39.227Z,17.60
2022-09-17T07:40:39.243Z,18.60
2022-09-17T07:41:39.213Z,15.00
2022-09-17T07:42:39.240Z,16.10
2022-09-17T07:43:40.230Z,15.60
2022-09-17T07:44:41.065Z,14.40
2022-09-17T07:45:39.170Z,18.10
2022-09-17T07:46:39.263Z,17.70
2022-09-17T07:47:39.156Z,15.00
2022-09-17T07:48:39.198Z,20.50
2022-09-17T07:49:39.152Z,17.20
2022-09-17T07:50:39.172Z,18.90
2022-09-17T07:51:40.517Z,15.80
2022-09-17T07:52:40.138Z,15.10
2022-09-17T07:53:39.169Z,13.20
2022-09-17T07:54:39.165Z,16.40
2022-09-17T07:55:39.117Z,14.10
2022-09-17T07:56:39.113Z,16.00
2022-09-17T07:57:39.075Z,11.80
2022-09-17T07:58:39.084Z,14.30
2022-09-17T07:59:39.108Z,19.20
2022-09-17T08:00:39.069Z,13.00
2022-09-17T08:01:39.243Z,14.10
2022-09-17T08:02:39.287Z,18.40
2022-09-17T08:03:39.039Z,13.70
2022-09-17T08:04:39.051Z,13.40
2022-09-17T08:05:39.076Z,11.60
2022-09-17T08:06:39.113Z,15.40
2022-09-17T08:07:39.026Z,18.20
2022-09-17T08:08:41.383Z,16.80
2022-09-17T08:09:39.009Z,17.40
2022-09-17T08:10:38.992Z,15.50
2022-09-17T08:11:55.078Z,16.30
2022-09-17T08:12:41.913Z,17.30
2022-09-17T08:13:39.011Z,13.00
2022-09-17T08:14:38.952Z,15.90
2022-09-17T08:15:38.972Z,11.40
2022-09-17T08:16:39.074Z,14.80
2022-09-17T08:17:38.989Z,13.00
2022-09-17T08:18:39.036Z,15.50
2022-09-17T08:19:38.939Z,13.90
2022-09-17T08:20:38.974Z,13.90
2022-09-17T08:21:38.970Z,12.50
2022-09-17T08:22:38.950Z,13.20
2022-09-17T08:23:38.890Z,15.10
2022-09-17T08:24:38.888Z,12.70
2022-09-17T08:25:38.860Z,12.80
2022-09-17T08:26:38.854Z,16.00
2022-09-17T08:27:38.902Z,10.60
2022-09-17T08:28:38.875Z,15.60
2022-09-17T08:29:38.887Z,12.00
2022-09-17T08:30:38.841Z,13.70
2022-09-17T08:31:38.937Z,15.50
2022-09-17T08:32:38.854Z,12.40
2022-09-17T08:33:38.814Z,12.50
2022-09-17T08:34:38.903Z,16.50
2022-09-17T08:35:38.829Z,15.20
2022-09-17T08:36:38.826Z,14.00
2022-09-17T08:37:38.789Z,11.70
2022-09-17T08:38:38.826Z,15.80
2022-09-17T08:39:38.774Z,12.40
2022-09-17T08:40:38.916Z,9.30
2022-09-17T08:41:38.759Z,10.60
2022-09-17T08:42:38.775Z,9.90
2022-09-17T08:43:38.783Z,14.80
2022-09-17T08:44:38.714Z,15.30
2022-09-17T08:45:38.722Z,16.00
2022-09-17T08:46:38.767Z,12.50
2022-09-17T08:47:39.695Z,12.70
2022-09-17T08:48:38.680Z,14.70
2022-09-17T08:49:38.697Z,10.20
2022-09-17T08:50:38.792Z,12.20
2022-09-17T08:51:38.682Z,10.60
2022-09-17T08:52:38.664Z,14.40
2022-09-17T08:53:38.637Z,10.60
2022-09-17T08:54:38.645Z,13.20
2022-09-17T08:55:38.653Z,15.90
2022-09-17T08:56:38.705Z,12.50
2022-09-17T08:57:38.646Z,14.80
2022-09-17T08:58:38.586Z,10.10
2022-09-17T08:59:38.625Z,11.60
2022-09-17T09:00:38.598Z,13.30
2022-09-17T09:01:38.738Z,15.80
2022-09-17T09:02:38.828Z,13.90
2022-09-17T09:03:38.581Z,15.10
2022-09-17T09:04:38.610Z,14.50
2022-09-17T09:05:38.587Z,12.50
2022-09-17T09:06:38.649Z,11.30
2022-09-17T09:07:38.534Z,11.70
2022-09-17T09:08:38.581Z,13.20
2022-09-17T09:09:38.582Z,18.90
2022-09-17T09:10:38.530Z,12.60
2022-09-17T09:11:38.578Z,13.80
2022-09-17T09:12:38.484Z,16.70
2022-09-17T09:13:38.543Z,13.50
2022-09-17T09:14:38.512Z,11.90
2022-09-17T09:22:24.045Z,13.50
2022-09-17T09:24:50.769Z,12.70
2022-09-17T09:25:47.983Z,14.20
2022-09-17T09:26:58.718Z,16.20
2022-09-17T09:27:50.162Z,15.50
2022-09-17T10:14:12.334Z,10.50
2022-09-17T10:15:12.321Z,9.70
2022-09-17T10:45:10.168Z,7.00
2022-09-17T10:50:06.743Z,6.70
2022-09-17T10:54:23.289Z,5.70
2022-09-17T10:54:50.916Z,5.40
2022-09-17T10:55:44.567Z,11.40
2022-09-17T10:56:43.589Z,7.80
2022-09-17T10:57:44.530Z,6.00
2022-09-17T10:58:44.293Z,7.30
2022-09-17T10:59:43.516Z,10.70
2022-09-17T11:00:43.578Z,10.00
2022-09-17T11:01:43.731Z,7.60
2022-09-17T11:02:44.847Z,8.30
2022-09-17T12:26:54.698Z,6.50
2022-09-17T12:27:27.769Z,6.70
2022-09-17T12:28:35.587Z,4.70
2022-09-17T12:29:28.836Z,4.70
2022-09-17T12:30:29.798Z,5.10
2022-09-17T12:31:29.812Z,5.30
2022-09-17T12:32:28.908Z,4.80
2022-09-17T12:34:08.770Z,6.80
2022-09-17T12:34:42.301Z,4.40
2022-09-17T12:39:35.575Z,3.30
2022-09-17T12:39:57.616Z,7.80
2022-09-17T12:40:57.535Z,5.80
2022-09-17T12:44:23.248Z,5.90
2022-09-17T12:44:44.164Z,7.60
2022-09-17T12:45:48.585Z,5.30
2022-09-17T12:46:46.661Z,2.80
2022-09-17T12:47:44.162Z,4.50
2022-09-17T12:48:45.391Z,7.50
2022-09-17T12:49:45.422Z,3.40
2022-09-17T12:52:38.397Z,5.90
2022-09-17T12:53:38.392Z,6.80
2022-09-17T12:54:43.082Z,7.30
2022-09-17T12:55:44.988Z,6.00
2022-09-17T12:56:38.382Z,4.90
2022-09-17T12:57:38.389Z,3.80
2022-09-17T12:58:38.353Z,6.50
2022-09-17T12:59:39.578Z,6.10
2022-09-17T13:00:39.671Z,4.70
2022-09-17T13:01:39.618Z,4.20
2022-09-17T13:02:40.685Z,5.90
2022-09-17T13:03:39.567Z,5.00
2022-09-17T13:04:59.953Z,5.70
2022-09-17T13:05:43.238Z,7.70
2022-09-17T13:06:39.637Z,7.20
2022-09-17T13:07:39.593Z,4.80
2022-09-17T13:08:39.503Z,6.50
2022-09-17T13:09:39.523Z,4.80
2022-09-17T13:10:40.298Z,6.80
2022-09-17T13:11:41.223Z,7.70
2022-09-17T13:12:39.625Z,4.40
2022-09-17T13:13:39.453Z,4.20
2022-09-17T13:14:39.495Z,4.30
2022-09-17T13:15:39.579Z,3.30
2022-09-17T13:16:39.537Z,1.90
2022-09-17T13:17:39.428Z,4.70
2022-09-17T13:18:41.795Z,6.10
2022-09-17T13:19:41.449Z,4.90
2022-09-17T13:20:39.441Z,3.80
2022-09-17T13:25:29.250Z,6.80
2022-09-17T13:26:29.349Z,3.80
2022-09-17T13:27:29.975Z,2.90
2022-09-17T13:28:29.323Z,6.30
2022-09-17T13:29:29.267Z,5.20
2022-09-17T13:30:29.242Z,8.70
2022-09-17T13:31:29.408Z,5.50
2022-09-17T13:32:31.197Z,5.80
2022-09-17T13:33:31.199Z,6.70
2022-09-17T13:34:30.545Z,4.80
2022-09-17T13:35:30.539Z,5.40
2022-09-17T13:36:30.409Z,6.40
2022-09-17T13:37:30.362Z,3.60
2022-09-17T13:38:30.398Z,3.80
2022-09-17T13:39:30.450Z,4.30
2022-09-17T13:40:30.486Z,5.30
2022-09-17T13:41:30.427Z,4.00
2022-09-17T13:42:30.365Z,5.70
2022-09-17T13:43:30.404Z,4.60
2022-09-17T13:44:30.449Z,6.00
2022-09-17T13:45:31.059Z,5.00
2022-09-17T13:46:30.360Z,4.00
2022-09-17T13:47:30.409Z,7.50
2022-09-17T13:48:30.272Z,3.90
2022-09-17T13:49:30.339Z,6.50
2022-09-17T13:50:30.252Z,4.90
2022-09-17T13:52:03.403Z,3.80
2022-09-17T13:52:30.234Z,3.20
2022-09-17T13:53:31.385Z,5.20
2022-09-17T13:54:30.311Z,4.70
2022-09-17T13:55:30.283Z,4.60
2022-09-17T13:56:30.280Z,3.40
2022-09-17T13:57:30.252Z,5.00
2022-09-17T13:58:30.224Z,7.10
2022-09-17T13:59:30.201Z,2.30
2022-09-17T14:00:31.216Z,4.40
2022-09-17T14:01:30.229Z,4.70
2022-09-17T14:02:31.099Z,5.50
2022-09-17T14:03:32.739Z,4.10
2022-09-17T14:04:30.179Z,2.40
2022-09-17T14:05:30.220Z,3.00
2022-09-17T14:06:30.284Z,3.60
2022-09-17T14:07:31.070Z,4.10
2022-09-17T14:08:30.224Z,4.00
2022-09-17T14:09:30.309Z,2.70
2022-09-17T14:10:30.190Z,2.30
2022-09-17T14:11:30.111Z,3.40
2022-09-17T14:12:30.223Z,2.40
2022-09-17T14:13:30.094Z,3.80
2022-09-17T14:14:30.095Z,3.80
2022-09-17T14:15:30.121Z,2.50
2022-09-17T14:16:30.218Z,3.10
2022-09-17T14:17:30.196Z,3.60
2022-09-17T14:18:30.085Z,4.40
2022-09-17T14:19:31.421Z,2.80
2022-09-17T14:23:25.135Z,4.30
2022-09-17T14:24:24.436Z,1.80
2022-09-17T14:25:25.531Z,1.70
2022-09-17T14:26:26.237Z,1.30
2022-09-17T14:27:26.247Z,1.50
2022-09-17T14:28:25.550Z,2.20
2022-09-17T14:29:25.687Z,1.10
2022-09-17T14:30:25.571Z,3.90
2022-09-17T14:31:25.576Z,1.10
2022-09-17T14:32:25.658Z,2.80
2022-09-17T14:33:25.646Z,3.50
2022-09-17T14:34:25.497Z,2.40
2022-09-17T14:35:25.544Z,1.60
2022-09-17T14:36:25.645Z,1.90
2022-09-17T14:37:25.502Z,3.80
2022-09-17T14:38:25.707Z,1.00
2022-09-17T14:39:25.609Z,3.50
2022-09-17T14:40:26.247Z,1.80
2022-09-17T14:41:26.249Z,1.90
2022-09-17T14:42:26.727Z,2.50
2022-09-17T14:43:25.506Z,2.50
2022-09-17T14:44:25.383Z,2.60
2022-09-17T14:45:25.462Z,1.90
2022-09-17T14:46:26.563Z,1.70
2022-09-17T14:47:26.192Z,2.90
2022-09-17T14:48:25.544Z,2.60
2022-09-17T14:49:25.429Z,2.30
2022-09-17T14:50:25.399Z,1.50
2022-09-17T14:52:02.543Z,1.80
2022-09-17T14:53:01.085Z,2.10
2022-09-17T14:53:26.401Z,2.20
2022-09-17T14:54:26.416Z,1.30
2022-09-17T14:55:25.651Z,2.10
2022-09-17T14:56:26.555Z,1.20
2022-09-17T14:57:27.109Z,3.10
2022-09-17T14:58:25.648Z,2.90
2022-09-17T14:59:29.127Z,3.20
2022-09-17T15:00:27.095Z,1.60
2022-09-17T15:01:25.672Z,2.40
2022-09-17T15:02:27.120Z,2.20
2022-09-17T15:03:27.569Z,2.70
2022-09-17T15:04:28.085Z,4.00
2022-09-17T15:05:26.582Z,3.60
2022-09-17T15:06:26.525Z,4.60
2022-09-17T15:07:27.621Z,2.30
2022-09-17T15:08:25.407Z,2.20
2022-09-17T15:09:25.455Z,3.30
2022-09-17T15:10:25.503Z,3.80
2022-09-17T15:11:27.156Z,3.50
2022-09-17T15:12:26.573Z,3.10
2022-09-17T15:13:28.605Z,4.10
2022-09-17T15:14:27.089Z,4.30
2022-09-17T15:15:28.071Z,3.30
2022-09-17T15:16:59.686Z,1.60
2022-09-17T15:17:25.900Z,1.40
2022-09-17T15:18:25.259Z,2.40
2022-09-17T15:19:25.168Z,4.00
2022-09-17T15:20:25.229Z,2.50
2022-09-17T15:21:25.246Z,3.40
2022-09-17T15:22:25.385Z,3.40
2022-09-17T15:23:25.201Z,2.70
2022-09-17T15:24:25.402Z,4.40
2022-09-17T15:25:25.349Z,2.20
2022-09-17T15:26:25.248Z,3.80
2022-09-17T15:27:25.224Z,2.50
2022-09-17T15:28:25.139Z,3.50
2022-09-17T15:29:25.315Z,1.60
2022-09-17T15:30:25.207Z,2.70
2022-09-17T15:31:25.278Z,2.90
2022-09-17T15:32:25.308Z,2.80
2022-09-17T15:33:26.174Z,2.70
2022-09-17T15:34:25.123Z,3.20
2022-09-17T15:35:25.130Z,2.40
2022-09-17T15:36:25.211Z,1.50
2022-09-17T15:37:25.139Z,3.60
2022-09-17T15:38:26.134Z,2.40
2022-09-17T15:39:59.415Z,3.50
2022-09-17T15:42:23.053Z,2.50
2022-09-17T15:43:23.062Z,3.80
2022-09-17T15:44:30.141Z,3.20
2022-09-17T15:45:24.613Z,2.00
2022-09-17T15:46:23.089Z,1.30
2022-09-17T15:47:23.072Z,1.00
2022-09-17T15:48:24.195Z,3.50
2022-09-17T15:49:24.378Z,3.50
2022-09-17T15:50:24.246Z,2.40
2022-09-17T15:51:24.225Z,3.00
2022-09-17T15:52:24.210Z,1.90
2022-09-17T15:53:24.235Z,1.70
2022-09-17T15:54:24.163Z,2.80
2022-09-17T15:55:24.865Z,2.90
2022-09-17T15:56:24.098Z,1.50
2022-09-17T15:57:24.152Z,2.90
2022-09-17T15:58:24.159Z,1.40
2022-09-17T15:59:24.147Z,2.70
2022-09-17T16:00:24.178Z,1.70
2022-09-17T16:01:24.193Z,2.00
2022-09-17T16:02:24.228Z,1.60
2022-09-17T16:03:24.092Z,2.60
2022-09-17T16:04:24.837Z,1.20
2022-09-17T16:05:24.114Z,1.30
2022-09-17T16:06:24.070Z,3.10
2022-09-17T16:07:24.070Z,1.80
2022-09-17T16:08:24.035Z,2.00
2022-09-17T16:09:24.057Z,2.20
2022-09-17T16:10:25.400Z,1.90
2022-09-17T16:11:24.152Z,1.70
2022-09-17T16:12:24.060Z,2.80
2022-09-17T16:13:28.450Z,1.20
2022-09-17T16:14:25.883Z,2.30
2022-09-17T16:15:24.088Z,1.50
2022-09-17T16:16:24.062Z,2.90
2022-09-17T16:17:24.082Z,3.70
2022-09-17T16:18:24.642Z,2.00
2022-09-17T16:19:24.116Z,6.80
2022-09-17T16:20:24.080Z,3.30
2022-09-17T16:21:23.975Z,1.60
2022-09-17T16:22:23.986Z,1.70
2022-09-17T16:23:24.043Z,1.90
2022-09-17T16:24:23.967Z,2.50
2022-09-17T16:25:24.614Z,1.90
2022-09-17T16:26:24.120Z,4.50
2022-09-17T16:27:24.121Z,4.10
2022-09-17T16:28:24.083Z,1.80
2022-09-17T16:29:24.126Z,3.50
2022-09-17T16:30:24.615Z,2.60
2022-09-17T16:31:23.968Z,2.90
2022-09-17T16:32:23.904Z,3.00
2022-09-17T16:33:23.947Z,3.80
2022-09-17T16:34:23.915Z,2.00
2022-09-17T16:35:24.794Z,2.80
2022-09-17T16:36:23.818Z,1.90
2022-09-17T16:37:23.878Z,3.70
2022-09-17T16:38:23.932Z,5.10
2022-09-17T16:39:24.051Z,7.00
2022-09-17T16:40:23.960Z,3.80
2022-09-17T16:41:23.811Z,3.60
2022-09-17T16:42:23.812Z,2.80
2022-09-17T16:43:23.853Z,1.50
2022-09-17T16:44:23.873Z,5.60
2022-09-17T16:45:28.714Z,4.70
2022-09-17T16:46:25.950Z,2.40
2022-09-17T16:47:23.846Z,0.90
2022-09-17T16:48:23.882Z,1.40
2022-09-17T16:49:25.706Z,1.40
2022-09-17T16:50:23.881Z,1.60
2022-09-17T16:51:24.386Z,1.50
2022-09-17T16:52:23.831Z,1.50
2022-09-17T16:53:24.047Z,5.40
2022-09-17T16:54:24.459Z,2.70
2022-09-17T16:55:23.790Z,5.70
2022-09-17T16:56:23.996Z,3.30
2022-09-17T16:57:24.494Z,6.30
2022-09-17T16:58:24.033Z,3.40
2022-09-17T16:59:24.267Z,3.30
2022-09-17T17:00:24.558Z,3.30
2022-09-17T17:01:23.890Z,4.20
2022-09-17T17:02:23.747Z,4.50
2022-09-17T17:03:25.205Z,4.40
2022-09-17T17:04:23.898Z,3.70
2022-09-17T17:05:24.475Z,3.80
2022-09-17T17:06:24.028Z,2.10
2022-09-17T17:07:23.807Z,5.50
2022-09-17T17:08:23.825Z,2.40
2022-09-17T17:09:24.582Z,5.40
2022-09-17T17:10:23.947Z,3.70
2022-09-17T17:11:23.722Z,4.90
2022-09-17T17:12:23.800Z,3.60
2022-09-17T17:13:23.537Z,3.80
2022-09-17T17:14:23.597Z,3.30